sensor_id;sensor_type;location;lat;lon;timestamp;P1;durP1;ratioP1;P2;durP2;ratioP2
65751;SDS011;52486;51.098;13.770;2023-10-09T00:00:07;2.55;;;2.30;;
65751;SDS011;52486;51.098;13.770;2023-10-09T00:03:00;3.13;;;2.28;;
65751;SDS011;52486;51.098;13.770;2023-10-09T00:05:29;4.35;;;2.90;;
65751;SDS011;52486;51.098;13.770;2023-10-09T00:08:04;4.55;;;2.15;;
65751;SDS011;52486;51.098;13.770;2023-10-09T00:10:30;2.88;;;2.30;;
65751;SDS011;52486;51.098;13.770;2023-10-09T00:13:15;4.35;;;2.50;;
65751;SDS011;52486;51.098;13.770;2023-10-09T00:15:41;4.22;;;2.30;;
65751;SDS011;52486;51.098;13.770;2023-10-09T00:18:08;3.42;;;2.45;;
65751;SDS011;52486;51.098;13.770;2023-10-09T00:20:38;5.15;;;2.83;;
65751;SDS011;52486;51.098;13.770;2023-10-09T00:23:08;3.53;;;2.72;;
65751;SDS011;52486;51.098;13.770;2023-10-09T00:25:37;2.90;;;2.60;;
65751;SDS011;52486;51.098;13.770;2023-10-09T00:28:11;3.33;;;2.53;;
65751;SDS011;52486;51.098;13.770;2023-10-09T00:30:40;4.30;;;2.28;;
65751;SDS011;52486;51.098;13.770;2023-10-09T00:33:07;4.43;;;2.65;;
65751;SDS011;52486;51.098;13.770;2023-10-09T00:35:37;4.25;;;2.70;;
65751;SDS011;52486;51.098;13.770;2023-10-09T00:38:19;3.78;;;2.63;;
65751;SDS011;52486;51.098;13.770;2023-10-09T00:40:45;3.95;;;2.47;;
65751;SDS011;52486;51.098;13.770;2023-10-09T00:43:15;4.38;;;2.67;;
65751;SDS011;52486;51.098;13.770;2023-10-09T00:45:44;3.30;;;2.67;;
65751;SDS011;52486;51.098;13.770;2023-10-09T00:48:13;3.45;;;2.60;;
65751;SDS011;52486;51.098;13.770;2023-10-09T00:50:47;3.20;;;2.47;;
65751;SDS011;52486;51.098;13.770;2023-10-09T00:53:17;5.03;;;3.00;;
65751;SDS011;52486;51.098;13.770;2023-10-09T00:55:43;3.88;;;2.60;;
65751;SDS011;52486;51.098;13.770;2023-10-09T00:58:13;4.18;;;2.70;;
65751;SDS011;52486;51.098;13.770;2023-10-09T01:00:42;3.63;;;3.00;;
65751;SDS011;52486;51.098;13.770;2023-10-09T01:03:08;4.05;;;2.65;;
65751;SDS011;52486;51.098;13.770;2023-10-09T01:05:48;3.38;;;2.60;;
65751;SDS011;52486;51.098;13.770;2023-10-09T01:08:21;4.78;;;2.90;;
65751;SDS011;52486;51.098;13.770;2023-10-09T01:10:55;3.58;;;2.60;;
65751;SDS011;52486;51.098;13.770;2023-10-09T01:13:23;4.72;;;2.72;;
65751;SDS011;52486;51.098;13.770;2023-10-09T01:16:05;4.10;;;3.00;;
65751;SDS011;52486;51.098;13.770;2023-10-09T01:18:34;5.45;;;3.17;;
65751;SDS011;52486;51.098;13.770;2023-10-09T01:21:03;3.67;;;3.10;;
65751;SDS011;52486;51.098;13.770;2023-10-09T01:23:29;4.75;;;3.17;;
65751;SDS011;52486;51.098;13.770;2023-10-09T01:25:55;4.90;;;3.08;;
65751;SDS011;52486;51.098;13.770;2023-10-09T01:28:22;4.97;;;3.17;;
65751;SDS011;52486;51.098;13.770;2023-10-09T01:30:49;4.22;;;3.05;;
65751;SDS011;52486;51.098;13.770;2023-10-09T01:33:18;4.68;;;3.03;;
65751;SDS011;52486;51.098;13.770;2023-10-09T01:35:47;4.10;;;3.00;;
65751;SDS011;52486;51.098;13.770;2023-10-09T01:38:14;4.40;;;3.40;;
65751;SDS011;52486;51.098;13.770;2023-10-09T01:40:41;4.63;;;3.40;;
65751;SDS011;52486;51.098;13.770;2023-10-09T01:43:08;4.63;;;3.38;;
65751;SDS011;52486;51.098;13.770;2023-10-09T01:45:35;4.90;;;3.30;;
65751;SDS011;52486;51.098;13.770;2023-10-09T01:48:08;4.72;;;3.08;;
65751;SDS011;52486;51.098;13.770;2023-10-09T01:50:37;3.88;;;3.10;;
65751;SDS011;52486;51.098;13.770;2023-10-09T01:53:06;4.03;;;3.30;;
65751;SDS011;52486;51.098;13.770;2023-10-09T01:55:33;4.82;;;3.22;;
65751;SDS011;52486;51.098;13.770;2023-10-09T01:58:02;3.28;;;2.75;;
65751;SDS011;52486;51.098;13.770;2023-10-09T02:00:31;5.38;;;3.30;;
65751;SDS011;52486;51.098;13.770;2023-10-09T02:03:01;5.50;;;3.22;;
65751;SDS011;52486;51.098;13.770;2023-10-09T02:05:30;4.25;;;2.70;;
65751;SDS011;52486;51.098;13.770;2023-10-09T02:10:31;4.28;;;3.05;;
65751;SDS011;52486;51.098;13.770;2023-10-09T02:15:25;4.20;;;3.10;;
65751;SDS011;52486;51.098;13.770;2023-10-09T02:18:16;4.93;;;3.72;;
65751;SDS011;52486;51.098;13.770;2023-10-09T02:20:43;4.00;;;3.05;;
65751;SDS011;52486;51.098;13.770;2023-10-09T02:23:13;3.97;;;3.08;;
65751;SDS011;52486;51.098;13.770;2023-10-09T02:25:40;6.30;;;3.60;;
65751;SDS011;52486;51.098;13.770;2023-10-09T02:28:08;8.02;;;3.60;;
65751;SDS011;52486;51.098;13.770;2023-10-09T02:30:42;4.90;;;3.67;;
65751;SDS011;52486;51.098;13.770;2023-10-09T02:33:10;4.20;;;3.40;;
65751;SDS011;52486;51.098;13.770;2023-10-09T02:35:36;4.30;;;3.30;;
65751;SDS011;52486;51.098;13.770;2023-10-09T02:38:03;5.32;;;3.67;;
65751;SDS011;52486;51.098;13.770;2023-10-09T02:40:33;4.85;;;3.13;;
65751;SDS011;52486;51.098;13.770;2023-10-09T02:43:07;4.22;;;3.20;;
65751;SDS011;52486;51.098;13.770;2023-10-09T02:45:38;5.22;;;3.40;;
65751;SDS011;52486;51.098;13.770;2023-10-09T02:48:15;6.05;;;3.42;;
65751;SDS011;52486;51.098;13.770;2023-10-09T02:50:41;3.95;;;3.25;;
65751;SDS011;52486;51.098;13.770;2023-10-09T02:53:09;3.72;;;3.00;;
65751;SDS011;52486;51.098;13.770;2023-10-09T02:55:43;4.22;;;3.00;;
65751;SDS011;52486;51.098;13.770;2023-10-09T02:58:18;5.25;;;3.28;;
65751;SDS011;52486;51.098;13.770;2023-10-09T03:00:48;4.37;;;3.37;;
65751;SDS011;52486;51.098;13.770;2023-10-09T03:03:14;4.40;;;3.15;;
65751;SDS011;52486;51.098;13.770;2023-10-09T03:05:43;4.55;;;3.10;;
65751;SDS011;52486;51.098;13.770;2023-10-09T03:08:09;4.32;;;3.30;;
65751;SDS011;52486;51.098;13.770;2023-10-09T03:10:40;4.22;;;3.25;;
65751;SDS011;52486;51.098;13.770;2023-10-09T03:13:06;5.50;;;3.15;;
65751;SDS011;52486;51.098;13.770;2023-10-09T03:15:32;4.22;;;3.28;;
65751;SDS011;52486;51.098;13.770;2023-10-09T03:18:03;4.85;;;3.05;;
65751;SDS011;52486;51.098;13.770;2023-10-09T03:20:30;3.92;;;3.13;;
65751;SDS011;52486;51.098;13.770;2023-10-09T03:22:56;6.65;;;3.17;;
65751;SDS011;52486;51.098;13.770;2023-10-09T03:25:23;3.70;;;2.85;;
65751;SDS011;52486;51.098;13.770;2023-10-09T03:27:53;4.00;;;3.00;;
65751;SDS011;52486;51.098;13.770;2023-10-09T03:30:21;4.50;;;3.20;;
65751;SDS011;52486;51.098;13.770;2023-10-09T03:32:51;4.80;;;3.20;;
65751;SDS011;52486;51.098;13.770;2023-10-09T03:35:20;5.47;;;3.03;;
65751;SDS011;52486;51.098;13.770;2023-10-09T03:37:56;5.07;;;3.20;;
65751;SDS011;52486;51.098;13.770;2023-10-09T03:40:25;5.18;;;3.30;;
65751;SDS011;52486;51.098;13.770;2023-10-09T03:42:52;4.45;;;3.00;;
65751;SDS011;52486;51.098;13.770;2023-10-09T03:45:21;5.47;;;3.20;;
65751;SDS011;52486;51.098;13.770;2023-10-09T03:47:51;4.78;;;3.15;;
65751;SDS011;52486;51.098;13.770;2023-10-09T03:50:22;4.32;;;2.97;;
65751;SDS011;52486;51.098;13.770;2023-10-09T03:53:04;5.45;;;3.20;;
65751;SDS011;52486;51.098;13.770;2023-10-09T03:55:36;5.90;;;3.15;;
65751;SDS011;52486;51.098;13.770;2023-10-09T03:58:06;5.55;;;3.70;;
65751;SDS011;52486;51.098;13.770;2023-10-09T04:00:32;3.50;;;2.70;;
65751;SDS011;52486;51.098;13.770;2023-10-09T04:03:09;5.00;;;3.17;;
65751;SDS011;52486;51.098;13.770;2023-10-09T04:05:36;6.65;;;3.90;;
65751;SDS011;52486;51.098;13.770;2023-10-09T04:08:06;4.75;;;3.58;;
65751;SDS011;52486;51.098;13.770;2023-10-09T04:13:16;3.53;;;3.15;;
65751;SDS011;52486;51.098;13.770;2023-10-09T04:15:47;6.47;;;3.03;;
65751;SDS011;52486;51.098;13.770;2023-10-09T04:18:14;5.30;;;3.08;;
65751;SDS011;52486;51.098;13.770;2023-10-09T04:20:44;5.35;;;3.50;;
65751;SDS011;52486;51.098;13.770;2023-10-09T04:23:28;5.13;;;3.80;;
65751;SDS011;52486;51.098;13.770;2023-10-09T04:26:00;4.28;;;3.45;;
65751;SDS011;52486;51.098;13.770;2023-10-09T04:28:39;3.90;;;3.25;;
65751;SDS011;52486;51.098;13.770;2023-10-09T04:31:07;4.45;;;3.40;;
65751;SDS011;52486;51.098;13.770;2023-10-09T04:33:33;5.10;;;3.50;;
65751;SDS011;52486;51.098;13.770;2023-10-09T04:36:05;4.28;;;2.92;;
65751;SDS011;52486;51.098;13.770;2023-10-09T04:38:44;4.82;;;3.38;;
65751;SDS011;52486;51.098;13.770;2023-10-09T04:41:25;7.32;;;3.42;;
65751;SDS011;52486;51.098;13.770;2023-10-09T04:43:58;5.20;;;3.35;;
65751;SDS011;52486;51.098;13.770;2023-10-09T04:46:42;4.72;;;3.30;;
65751;SDS011;52486;51.098;13.770;2023-10-09T04:49:09;5.68;;;3.45;;
65751;SDS011;52486;51.098;13.770;2023-10-09T04:52:02;4.80;;;3.13;;
65751;SDS011;52486;51.098;13.770;2023-10-09T04:54:43;9.02;;;3.65;;
65751;SDS011;52486;51.098;13.770;2023-10-09T04:57:28;4.70;;;3.53;;
65751;SDS011;52486;51.098;13.770;2023-10-09T04:59:54;4.90;;;3.35;;
65751;SDS011;52486;51.098;13.770;2023-10-09T05:02:24;5.80;;;3.63;;
65751;SDS011;52486;51.098;13.770;2023-10-09T05:04:50;4.28;;;3.30;;
65751;SDS011;52486;51.098;13.770;2023-10-09T05:07:39;4.65;;;3.28;;
65751;SDS011;52486;51.098;13.770;2023-10-09T05:10:20;4.45;;;3.50;;
65751;SDS011;52486;51.098;13.770;2023-10-09T05:12:51;3.90;;;3.20;;
65751;SDS011;52486;51.098;13.770;2023-10-09T05:15:23;3.92;;;3.17;;
65751;SDS011;52486;51.098;13.770;2023-10-09T05:17:55;4.47;;;3.55;;
65751;SDS011;52486;51.098;13.770;2023-10-09T05:20:27;7.20;;;3.15;;
65751;SDS011;52486;51.098;13.770;2023-10-09T05:22:53;4.40;;;3.15;;
65751;SDS011;52486;51.098;13.770;2023-10-09T05:25:25;7.75;;;3.63;;
65751;SDS011;52486;51.098;13.770;2023-10-09T05:28:10;7.38;;;3.20;;
65751;SDS011;52486;51.098;13.770;2023-10-09T05:30:58;5.88;;;3.20;;
65751;SDS011;52486;51.098;13.770;2023-10-09T05:33:32;4.30;;;3.20;;
65751;SDS011;52486;51.098;13.770;2023-10-09T05:35:59;5.78;;;3.80;;
65751;SDS011;52486;51.098;13.770;2023-10-09T05:38:44;5.57;;;3.60;;
65751;SDS011;52486;51.098;13.770;2023-10-09T05:41:24;4.55;;;3.03;;
65751;SDS011;52486;51.098;13.770;2023-10-09T05:44:10;4.10;;;3.05;;
65751;SDS011;52486;51.098;13.770;2023-10-09T05:46:55;9.43;;;3.20;;
65751;SDS011;52486;51.098;13.770;2023-10-09T05:49:40;4.75;;;3.30;;
65751;SDS011;52486;51.098;13.770;2023-10-09T05:52:19;5.95;;;3.30;;
65751;SDS011;52486;51.098;13.770;2023-10-09T05:55:07;4.18;;;3.20;;
65751;SDS011;52486;51.098;13.770;2023-10-09T05:57:49;7.50;;;3.45;;
65751;SDS011;52486;51.098;13.770;2023-10-09T06:00:24;6.20;;;3.58;;
65751;SDS011;52486;51.098;13.770;2023-10-09T06:03:09;6.95;;;3.58;;
65751;SDS011;52486;51.098;13.770;2023-10-09T06:05:54;5.93;;;3.80;;
65751;SDS011;52486;51.098;13.770;2023-10-09T06:08:26;5.85;;;3.67;;
65751;SDS011;52486;51.098;13.770;2023-10-09T06:11:12;6.32;;;3.72;;
65751;SDS011;52486;51.098;13.770;2023-10-09T06:13:57;5.25;;;3.40;;
65751;SDS011;52486;51.098;13.770;2023-10-09T06:16:37;6.10;;;4.13;;
65751;SDS011;52486;51.098;13.770;2023-10-09T06:19:07;6.10;;;4.43;;
65751;SDS011;52486;51.098;13.770;2023-10-09T06:21:40;6.22;;;4.07;;
65751;SDS011;52486;51.098;13.770;2023-10-09T06:26:45;12.20;;;4.30;;
65751;SDS011;52486;51.098;13.770;2023-10-09T06:29:23;7.70;;;4.88;;
65751;SDS011;52486;51.098;13.770;2023-10-09T06:32:03;5.85;;;4.13;;
65751;SDS011;52486;51.098;13.770;2023-10-09T06:34:59;7.13;;;3.97;;
65751;SDS011;52486;51.098;13.770;2023-10-09T06:38:03;9.82;;;4.50;;
65751;SDS011;52486;51.098;13.770;2023-10-09T06:40:49;9.43;;;4.10;;
65751;SDS011;52486;51.098;13.770;2023-10-09T06:43:21;7.20;;;3.83;;
65751;SDS011;52486;51.098;13.770;2023-10-09T06:45:47;8.27;;;3.80;;
65751;SDS011;52486;51.098;13.770;2023-10-09T06:48:26;5.35;;;3.35;;
65751;SDS011;52486;51.098;13.770;2023-10-09T06:51:05;7.93;;;3.88;;
65751;SDS011;52486;51.098;13.770;2023-10-09T06:53:58;6.82;;;3.60;;
65751;SDS011;52486;51.098;13.770;2023-10-09T06:56:29;3.75;;;3.22;;
65751;SDS011;52486;51.098;13.770;2023-10-09T06:58:56;7.90;;;3.83;;
65751;SDS011;52486;51.098;13.770;2023-10-09T07:01:30;6.40;;;3.20;;
65751;SDS011;52486;51.098;13.770;2023-10-09T07:04:08;4.10;;;3.05;;
65751;SDS011;52486;51.098;13.770;2023-10-09T07:06:47;8.57;;;3.30;;
65751;SDS011;52486;51.098;13.770;2023-10-09T07:09:17;5.10;;;3.05;;
65751;SDS011;52486;51.098;13.770;2023-10-09T07:11:47;5.85;;;3.13;;
65751;SDS011;52486;51.098;13.770;2023-10-09T07:14:14;6.50;;;2.97;;
65751;SDS011;52486;51.098;13.770;2023-10-09T07:19:48;7.25;;;3.05;;
65751;SDS011;52486;51.098;13.770;2023-10-09T07:22:14;9.40;;;3.58;;
65751;SDS011;52486;51.098;13.770;2023-10-09T07:24:56;9.77;;;3.28;;
65751;SDS011;52486;51.098;13.770;2023-10-09T07:27:23;8.10;;;3.65;;
65751;SDS011;52486;51.098;13.770;2023-10-09T07:30:08;6.13;;;3.22;;
65751;SDS011;52486;51.098;13.770;2023-10-09T07:32:55;4.53;;;3.05;;
65751;SDS011;52486;51.098;13.770;2023-10-09T07:35:30;6.60;;;3.85;;
65751;SDS011;52486;51.098;13.770;2023-10-09T07:38:05;7.22;;;3.50;;
65751;SDS011;52486;51.098;13.770;2023-10-09T07:40:35;5.55;;;3.10;;
65751;SDS011;52486;51.098;13.770;2023-10-09T07:43:20;6.35;;;3.50;;
65751;SDS011;52486;51.098;13.770;2023-10-09T07:45:51;5.93;;;3.70;;
65751;SDS011;52486;51.098;13.770;2023-10-09T07:48:24;5.13;;;2.80;;
65751;SDS011;52486;51.098;13.770;2023-10-09T07:51:04;5.38;;;3.00;;
65751;SDS011;52486;51.098;13.770;2023-10-09T07:53:30;7.88;;;3.58;;
65751;SDS011;52486;51.098;13.770;2023-10-09T07:56:08;8.38;;;3.97;;
65751;SDS011;52486;51.098;13.770;2023-10-09T07:58:34;5.70;;;3.08;;
65751;SDS011;52486;51.098;13.770;2023-10-09T08:01:11;9.50;;;3.53;;
65751;SDS011;52486;51.098;13.770;2023-10-09T08:04:04;11.68;;;3.83;;
65751;SDS011;52486;51.098;13.770;2023-10-09T08:06:36;7.38;;;3.75;;
65751;SDS011;52486;51.098;13.770;2023-10-09T08:09:09;5.00;;;3.20;;
65751;SDS011;52486;51.098;13.770;2023-10-09T08:11:38;9.02;;;3.55;;
65751;SDS011;52486;51.098;13.770;2023-10-09T08:14:04;9.07;;;3.17;;
65751;SDS011;52486;51.098;13.770;2023-10-09T08:16:54;6.25;;;3.30;;
65751;SDS011;52486;51.098;13.770;2023-10-09T08:19:38;6.18;;;3.50;;
65751;SDS011;52486;51.098;13.770;2023-10-09T08:22:23;8.38;;;3.60;;
65751;SDS011;52486;51.098;13.770;2023-10-09T08:24:50;11.32;;;4.03;;
65751;SDS011;52486;51.098;13.770;2023-10-09T08:27:28;11.35;;;3.72;;
65751;SDS011;52486;51.098;13.770;2023-10-09T08:32:43;10.23;;;3.00;;
65751;SDS011;52486;51.098;13.770;2023-10-09T08:35:25;8.65;;;3.25;;
65751;SDS011;52486;51.098;13.770;2023-10-09T08:38:02;9.35;;;3.75;;
65751;SDS011;52486;51.098;13.770;2023-10-09T08:40:38;5.63;;;3.28;;
65751;SDS011;52486;51.098;13.770;2023-10-09T08:43:09;8.35;;;3.67;;
65751;SDS011;52486;51.098;13.770;2023-10-09T08:45:37;10.63;;;3.78;;
65751;SDS011;52486;51.098;13.770;2023-10-09T08:48:07;7.35;;;3.20;;
65751;SDS011;52486;51.098;13.770;2023-10-09T08:50:40;8.43;;;3.50;;
65751;SDS011;52486;51.098;13.770;2023-10-09T08:53:07;9.95;;;3.25;;
65751;SDS011;52486;51.098;13.770;2023-10-09T08:55:36;9.40;;;3.38;;
65751;SDS011;52486;51.098;13.770;2023-10-09T08:58:03;7.72;;;3.10;;
65751;SDS011;52486;51.098;13.770;2023-10-09T09:00:35;13.98;;;3.65;;
65751;SDS011;52486;51.098;13.770;2023-10-09T09:03:01;12.38;;;3.63;;
65751;SDS011;52486;51.098;13.770;2023-10-09T09:05:28;8.10;;;3.40;;
65751;SDS011;52486;51.098;13.770;2023-10-09T09:07:54;18.05;;;3.85;;
65751;SDS011;52486;51.098;13.770;2023-10-09T09:10:27;15.40;;;4.13;;
65751;SDS011;52486;51.098;13.770;2023-10-09T09:13:00;11.68;;;4.00;;
65751;SDS011;52486;51.098;13.770;2023-10-09T09:15:31;20.42;;;4.25;;
65751;SDS011;52486;51.098;13.770;2023-10-09T09:18:03;12.35;;;3.60;;
65751;SDS011;52486;51.098;13.770;2023-10-09T09:20:42;12.55;;;3.38;;
65751;SDS011;52486;51.098;13.770;2023-10-09T09:23:11;10.02;;;3.35;;
65751;SDS011;52486;51.098;13.770;2023-10-09T09:25:47;10.98;;;3.38;;
65751;SDS011;52486;51.098;13.770;2023-10-09T09:28:13;13.25;;;3.60;;
65751;SDS011;52486;51.098;13.770;2023-10-09T09:30:45;13.75;;;3.60;;
65751;SDS011;52486;51.098;13.770;2023-10-09T09:38:35;13.82;;;4.30;;
65751;SDS011;52486;51.098;13.770;2023-10-09T09:41:07;13.90;;;4.15;;
65751;SDS011;52486;51.098;13.770;2023-10-09T09:43:34;18.35;;;4.50;;
65751;SDS011;52486;51.098;13.770;2023-10-09T09:46:05;7.90;;;3.65;;
65751;SDS011;52486;51.098;13.770;2023-10-09T09:48:38;11.52;;;4.32;;
65751;SDS011;52486;51.098;13.770;2023-10-09T09:51:05;8.50;;;4.00;;
65751;SDS011;52486;51.098;13.770;2023-10-09T09:53:33;12.95;;;4.13;;
65751;SDS011;52486;51.098;13.770;2023-10-09T09:56:00;8.02;;;3.60;;
65751;SDS011;52486;51.098;13.770;2023-10-09T09:58:28;13.95;;;4.05;;
65751;SDS011;52486;51.098;13.770;2023-10-09T10:01:09;6.47;;;3.60;;
65751;SDS011;52486;51.098;13.770;2023-10-09T10:06:22;9.43;;;4.10;;
65751;SDS011;52486;51.098;13.770;2023-10-09T10:08:51;11.52;;;4.38;;
65751;SDS011;52486;51.098;13.770;2023-10-09T10:14:05;6.60;;;3.92;;
65751;SDS011;52486;51.098;13.770;2023-10-09T10:16:54;8.60;;;3.95;;
65751;SDS011;52486;51.098;13.770;2023-10-09T10:19:22;8.10;;;3.80;;
65751;SDS011;52486;51.098;13.770;2023-10-09T10:21:48;9.48;;;3.65;;
65751;SDS011;52486;51.098;13.770;2023-10-09T10:29:43;8.75;;;3.45;;
65751;SDS011;52486;51.098;13.770;2023-10-09T10:32:11;6.55;;;3.50;;
65751;SDS011;52486;51.098;13.770;2023-10-09T10:37:42;6.78;;;3.40;;
65751;SDS011;52486;51.098;13.770;2023-10-09T10:40:25;12.98;;;3.75;;
65751;SDS011;52486;51.098;13.770;2023-10-09T10:43:15;9.77;;;3.20;;
65751;SDS011;52486;51.098;13.770;2023-10-09T10:46:04;6.45;;;3.25;;
65751;SDS011;52486;51.098;13.770;2023-10-09T10:48:39;7.70;;;3.13;;
65751;SDS011;52486;51.098;13.770;2023-10-09T10:51:05;12.32;;;3.25;;
65751;SDS011;52486;51.098;13.770;2023-10-09T10:53:31;5.90;;;3.10;;
65751;SDS011;52486;51.098;13.770;2023-10-09T10:56:12;20.23;;;3.38;;
65751;SDS011;52486;51.098;13.770;2023-10-09T10:58:42;7.40;;;3.10;;
65751;SDS011;52486;51.098;13.770;2023-10-09T11:01:35;11.00;;;2.83;;
65751;SDS011;52486;51.098;13.770;2023-10-09T11:04:20;7.95;;;3.38;;
65751;SDS011;52486;51.098;13.770;2023-10-09T11:06:59;12.32;;;3.20;;
65751;SDS011;52486;51.098;13.770;2023-10-09T11:09:48;15.65;;;3.40;;
65751;SDS011;52486;51.098;13.770;2023-10-09T11:12:30;6.15;;;3.05;;
65751;SDS011;52486;51.098;13.770;2023-10-09T11:15:37;5.50;;;2.80;;
65751;SDS011;52486;51.098;13.770;2023-10-09T11:18:10;9.30;;;2.40;;
65751;SDS011;52486;51.098;13.770;2023-10-09T11:21:03;5.43;;;2.85;;
65751;SDS011;52486;51.098;13.770;2023-10-09T11:23:32;7.13;;;2.58;;
65751;SDS011;52486;51.098;13.770;2023-10-09T11:25:58;6.43;;;2.70;;
65751;SDS011;52486;51.098;13.770;2023-10-09T11:28:43;3.55;;;2.50;;
65751;SDS011;52486;51.098;13.770;2023-10-09T11:31:23;3.65;;;2.28;;
65751;SDS011;52486;51.098;13.770;2023-10-09T11:33:50;10.05;;;2.58;;
65751;SDS011;52486;51.098;13.770;2023-10-09T11:36:17;21.00;;;2.65;;
65751;SDS011;52486;51.098;13.770;2023-10-09T11:38:46;9.82;;;2.65;;
65751;SDS011;52486;51.098;13.770;2023-10-09T11:41:17;6.63;;;2.38;;
65751;SDS011;52486;51.098;13.770;2023-10-09T11:43:52;7.38;;;2.85;;
65751;SDS011;52486;51.098;13.770;2023-10-09T11:46:22;5.60;;;2.50;;
65751;SDS011;52486;51.098;13.770;2023-10-09T11:49:09;10.02;;;2.72;;
65751;SDS011;52486;51.098;13.770;2023-10-09T11:51:47;10.48;;;2.88;;
65751;SDS011;52486;51.098;13.770;2023-10-09T11:54:39;11.65;;;2.70;;
65751;SDS011;52486;51.098;13.770;2023-10-09T11:57:08;4.50;;;2.78;;
65751;SDS011;52486;51.098;13.770;2023-10-09T11:59:34;7.72;;;3.10;;
65751;SDS011;52486;51.098;13.770;2023-10-09T12:02:04;15.43;;;3.20;;
65751;SDS011;52486;51.098;13.770;2023-10-09T12:04:30;11.60;;;2.85;;
65751;SDS011;52486;51.098;13.770;2023-10-09T12:06:56;14.80;;;3.75;;
65751;SDS011;52486;51.098;13.770;2023-10-09T12:09:34;8.40;;;3.08;;
65751;SDS011;52486;51.098;13.770;2023-10-09T12:12:04;11.75;;;3.30;;
65751;SDS011;52486;51.098;13.770;2023-10-09T12:17:03;13.15;;;3.92;;
65751;SDS011;52486;51.098;13.770;2023-10-09T12:19:36;14.53;;;3.57;;
65751;SDS011;52486;51.098;13.770;2023-10-09T12:22:03;13.60;;;3.72;;
65751;SDS011;52486;51.098;13.770;2023-10-09T12:24:32;11.13;;;4.25;;
65751;SDS011;52486;51.098;13.770;2023-10-09T12:26:58;8.77;;;3.63;;
65751;SDS011;52486;51.098;13.770;2023-10-09T12:29:25;6.97;;;3.63;;
65751;SDS011;52486;51.098;13.770;2023-10-09T12:31:55;8.20;;;3.78;;
65751;SDS011;52486;51.098;13.770;2023-10-09T12:34:24;9.90;;;4.18;;
65751;SDS011;52486;51.098;13.770;2023-10-09T12:36:53;10.65;;;3.80;;
65751;SDS011;52486;51.098;13.770;2023-10-09T12:39:22;12.82;;;3.80;;
65751;SDS011;52486;51.098;13.770;2023-10-09T12:41:48;13.35;;;4.10;;
65751;SDS011;52486;51.098;13.770;2023-10-09T12:44:18;9.15;;;3.70;;
65751;SDS011;52486;51.098;13.770;2023-10-09T12:46:47;9.48;;;4.05;;
65751;SDS011;52486;51.098;13.770;2023-10-09T12:49:22;6.68;;;3.63;;
65751;SDS011;52486;51.098;13.770;2023-10-09T12:51:51;6.55;;;4.00;;
65751;SDS011;52486;51.098;13.770;2023-10-09T12:54:20;13.85;;;3.75;;
65751;SDS011;52486;51.098;13.770;2023-10-09T12:56:52;14.77;;;4.22;;
65751;SDS011;52486;51.098;13.770;2023-10-09T12:59:21;13.60;;;3.83;;
65751;SDS011;52486;51.098;13.770;2023-10-09T13:01:47;8.57;;;3.75;;
65751;SDS011;52486;51.098;13.770;2023-10-09T13:04:33;6.90;;;3.45;;
65751;SDS011;52486;51.098;13.770;2023-10-09T13:07:00;13.40;;;3.72;;
65751;SDS011;52486;51.098;13.770;2023-10-09T13:09:27;8.55;;;3.85;;
65751;SDS011;52486;51.098;13.770;2023-10-09T13:12:08;18.17;;;4.17;;
65751;SDS011;52486;51.098;13.770;2023-10-09T13:14:35;11.80;;;4.55;;
65751;SDS011;52486;51.098;13.770;2023-10-09T13:17:01;10.60;;;3.97;;
65751;SDS011;52486;51.098;13.770;2023-10-09T13:19:35;10.00;;;3.88;;
65751;SDS011;52486;51.098;13.770;2023-10-09T13:22:01;12.73;;;4.03;;
65751;SDS011;52486;51.098;13.770;2023-10-09T13:24:28;10.98;;;3.67;;
65751;SDS011;52486;51.098;13.770;2023-10-09T13:26:56;12.23;;;3.70;;
65751;SDS011;52486;51.098;13.770;2023-10-09T13:29:23;9.88;;;3.97;;
65751;SDS011;52486;51.098;13.770;2023-10-09T13:31:49;10.48;;;3.63;;
65751;SDS011;52486;51.098;13.770;2023-10-09T13:34:18;9.98;;;3.80;;
65751;SDS011;52486;51.098;13.770;2023-10-09T13:36:44;12.10;;;4.10;;
65751;SDS011;52486;51.098;13.770;2023-10-09T13:39:18;8.68;;;4.15;;
65751;SDS011;52486;51.098;13.770;2023-10-09T13:41:54;10.75;;;3.70;;
65751;SDS011;52486;51.098;13.770;2023-10-09T13:46:51;10.38;;;3.80;;
65751;SDS011;52486;51.098;13.770;2023-10-09T13:49:25;13.45;;;3.78;;
65751;SDS011;52486;51.098;13.770;2023-10-09T13:52:01;18.30;;;3.53;;
65751;SDS011;52486;51.098;13.770;2023-10-09T13:54:27;8.05;;;3.75;;
65751;SDS011;52486;51.098;13.770;2023-10-09T13:57:06;10.45;;;3.83;;
65751;SDS011;52486;51.098;13.770;2023-10-09T13:59:33;10.75;;;3.63;;
65751;SDS011;52486;51.098;13.770;2023-10-09T14:02:09;12.95;;;3.65;;
65751;SDS011;52486;51.098;13.770;2023-10-09T14:04:35;19.10;;;3.65;;
65751;SDS011;52486;51.098;13.770;2023-10-09T14:07:01;7.22;;;3.50;;
65751;SDS011;52486;51.098;13.770;2023-10-09T14:09:30;9.70;;;3.85;;
65751;SDS011;52486;51.098;13.770;2023-10-09T14:11:56;13.32;;;3.80;;
65751;SDS011;52486;51.098;13.770;2023-10-09T14:14:38;8.57;;;3.72;;
65751;SDS011;52486;51.098;13.770;2023-10-09T14:17:17;10.15;;;3.90;;
65751;SDS011;52486;51.098;13.770;2023-10-09T14:19:53;15.25;;;3.30;;
65751;SDS011;52486;51.098;13.770;2023-10-09T14:22:23;7.00;;;3.92;;
65751;SDS011;52486;51.098;13.770;2023-10-09T14:24:52;11.85;;;3.60;;
65751;SDS011;52486;51.098;13.770;2023-10-09T14:27:27;6.65;;;3.20;;
65751;SDS011;52486;51.098;13.770;2023-10-09T14:29:55;10.68;;;3.78;;
65751;SDS011;52486;51.098;13.770;2023-10-09T14:32:24;5.80;;;3.83;;
65751;SDS011;52486;51.098;13.770;2023-10-09T14:34:54;10.73;;;4.15;;
65751;SDS011;52486;51.098;13.770;2023-10-09T14:37:25;15.00;;;4.00;;
65751;SDS011;52486;51.098;13.770;2023-10-09T14:39:55;10.98;;;4.22;;
65751;SDS011;52486;51.098;13.770;2023-10-09T14:42:21;11.30;;;3.67;;
65751;SDS011;52486;51.098;13.770;2023-10-09T14:44:49;10.07;;;3.92;;
65751;SDS011;52486;51.098;13.770;2023-10-09T14:47:15;6.05;;;3.53;;
65751;SDS011;52486;51.098;13.770;2023-10-09T14:49:41;9.40;;;4.03;;
65751;SDS011;52486;51.098;13.770;2023-10-09T14:52:09;6.78;;;3.60;;
65751;SDS011;52486;51.098;13.770;2023-10-09T14:54:35;7.93;;;3.80;;
65751;SDS011;52486;51.098;13.770;2023-10-09T14:57:03;7.40;;;3.65;;
65751;SDS011;52486;51.098;13.770;2023-10-09T14:59:33;9.02;;;4.07;;
65751;SDS011;52486;51.098;13.770;2023-10-09T15:01:59;5.60;;;3.75;;
65751;SDS011;52486;51.098;13.770;2023-10-09T15:04:26;8.90;;;3.90;;
65751;SDS011;52486;51.098;13.770;2023-10-09T15:06:52;7.25;;;3.65;;
65751;SDS011;52486;51.098;13.770;2023-10-09T15:09:18;4.63;;;3.47;;
65751;SDS011;52486;51.098;13.770;2023-10-09T15:11:50;5.50;;;3.97;;
65751;SDS011;52486;51.098;13.770;2023-10-09T15:14:17;10.05;;;4.00;;
65751;SDS011;52486;51.098;13.770;2023-10-09T15:16:46;9.48;;;3.85;;
65751;SDS011;52486;51.098;13.770;2023-10-09T15:19:12;6.43;;;3.53;;
65751;SDS011;52486;51.098;13.770;2023-10-09T15:21:39;4.10;;;3.33;;
65751;SDS011;52486;51.098;13.770;2023-10-09T15:24:09;5.18;;;3.05;;
65751;SDS011;52486;51.098;13.770;2023-10-09T15:26:43;9.23;;;3.85;;
65751;SDS011;52486;51.098;13.770;2023-10-09T15:29:11;6.45;;;3.40;;
65751;SDS011;52486;51.098;13.770;2023-10-09T15:31:37;5.20;;;3.28;;
65751;SDS011;52486;51.098;13.770;2023-10-09T15:34:04;8.95;;;3.35;;
65751;SDS011;52486;51.098;13.770;2023-10-09T15:36:33;3.28;;;2.97;;
65751;SDS011;52486;51.098;13.770;2023-10-09T15:39:00;7.15;;;3.30;;
65751;SDS011;52486;51.098;13.770;2023-10-09T15:41:27;6.35;;;3.38;;